createdAt,value
2022-12-29T00:00:07.751Z,99.99
2022-12-29T00:01:07.812Z,99.99
2022-12-29T00:02:07.725Z,99.99
2022-12-29T00:03:07.784Z,99.99
2022-12-29T00:04:12.856Z,99.99
2022-12-29T00:05:07.731Z,99.99
2022-12-29T00:06:07.733Z,99.99
2022-12-29T00:07:07.678Z,99.99
2022-12-29T00:08:07.690Z,99.99
2022-12-29T00:09:07.680Z,99.99
2022-12-29T00:10:07.685Z,99.99
2022-12-29T00:11:07.661Z,99.99
2022-12-29T00:12:07.641Z,99.99
2022-12-29T00:13:07.631Z,99.99
2022-12-29T00:14:07.607Z,99.99
2022-12-29T00:15:07.618Z,99.99
2022-12-29T00:16:07.645Z,99.99
2022-12-29T00:17:07.594Z,99.99
2022-12-29T00:18:07.561Z,99.99
2022-12-29T00:19:07.555Z,99.99
2022-12-29T00:20:07.557Z,99.99
2022-12-29T00:21:07.555Z,99.99
2022-12-29T00:22:07.526Z,99.99
2022-12-29T00:23:07.526Z,99.99
2022-12-29T00:24:07.503Z,99.99
2022-12-29T00:25:07.529Z,99.99
2022-12-29T00:26:07.480Z,99.99
2022-12-29T00:27:07.477Z,99.99
2022-12-29T00:28:07.971Z,99.99
2022-12-29T00:29:07.459Z,99.99
2022-12-29T00:30:07.459Z,99.99
2022-12-29T00:31:07.550Z,99.99
2022-12-29T00:32:07.421Z,99.99
2022-12-29T00:33:07.427Z,99.99
2022-12-29T00:34:07.402Z,99.99
2022-12-29T00:35:07.415Z,99.99
2022-12-29T00:36:07.387Z,99.99
2022-12-29T00:37:07.392Z,99.99
2022-12-29T00:38:07.365Z,99.99
2022-12-29T00:39:07.357Z,99.99
2022-12-29T00:40:07.350Z,99.99
2022-12-29T00:41:07.345Z,99.99
2022-12-29T00:42:07.321Z,99.99
2022-12-29T00:43:07.306Z,99.99
2022-12-29T00:44:07.377Z,99.99
2022-12-29T00:45:07.319Z,99.99
2022-12-29T00:46:07.317Z,99.99
2022-12-29T00:47:07.354Z,99.99
2022-12-29T00:48:07.281Z,99.99
2022-12-29T00:49:07.251Z,99.99
2022-12-29T00:50:07.277Z,99.99
2022-12-29T00:51:07.228Z,99.99
2022-12-29T00:52:07.399Z,99.99
2022-12-29T00:53:07.224Z,99.99
2022-12-29T00:54:07.253Z,99.99
2022-12-29T00:55:07.206Z,99.99
2022-12-29T00:56:07.177Z,99.99
2022-12-29T00:57:07.234Z,99.99
2022-12-29T00:58:07.281Z,99.99
2022-12-29T00:59:07.221Z,99.99
2022-12-29T01:00:07.201Z,99.99
2022-12-29T01:01:07.327Z,99.99
2022-12-29T01:02:07.216Z,99.99
2022-12-29T01:03:07.144Z,99.99
2022-12-29T01:04:07.139Z,99.99
2022-12-29T01:05:07.103Z,99.99
2022-12-29T01:06:07.069Z,99.99
2022-12-29T01:07:07.086Z,99.99
2022-12-29T01:08:07.046Z,99.99
2022-12-29T01:09:07.043Z,99.99
2022-12-29T01:10:07.044Z,99.99
2022-12-29T01:11:07.049Z,99.99
2022-12-29T01:12:07.023Z,99.99
2022-12-29T01:13:07.007Z,99.99
2022-12-29T01:14:06.995Z,99.99
2022-12-29T01:15:07.006Z,99.99
2022-12-29T01:16:07.022Z,99.99
2022-12-29T01:17:06.966Z,99.99
2022-12-29T01:18:06.972Z,99.99
2022-12-29T01:19:06.939Z,99.99
2022-12-29T01:20:06.943Z,99.99
2022-12-29T01:21:06.926Z,99.99
2022-12-29T01:22:06.919Z,99.99
2022-12-29T01:23:06.917Z,99.99
2022-12-29T01:24:06.881Z,99.99
2022-12-29T01:25:06.905Z,99.99
2022-12-29T01:26:06.856Z,99.99
2022-12-29T01:27:06.857Z,99.99
2022-12-29T01:28:06.864Z,99.99
2022-12-29T01:29:06.841Z,99.99
2022-12-29T01:30:06.879Z,99.99
2022-12-29T01:31:06.864Z,99.99
2022-12-29T01:32:06.795Z,99.99
2022-12-29T01:33:06.792Z,99.99
2022-12-29T01:34:06.800Z,99.99
2022-12-29T01:35:06.796Z,99.99
2022-12-29T01:36:06.752Z,99.99
2022-12-29T01:37:06.758Z,99.99
2022-12-29T01:38:06.737Z,99.99
2022-12-29T01:39:06.737Z,99.99
2022-12-29T01:40:06.752Z,99.99
2022-12-29T01:41:06.724Z,99.99
2022-12-29T01:42:06.690Z,99.99
2022-12-29T01:43:06.687Z,99.99
2022-12-29T01:44:06.674Z,99.99
2022-12-29T01:45:06.660Z,99.99
2022-12-29T01:46:06.699Z,99.99
2022-12-29T01:47:06.652Z,99.99
2022-12-29T01:48:06.633Z,99.99
2022-12-29T01:49:06.615Z,99.99
2022-12-29T01:50:06.607Z,99.99
2022-12-29T01:51:06.608Z,99.99
2022-12-29T01:52:06.585Z,99.99
2022-12-29T01:53:06.599Z,99.99
2022-12-29T01:54:06.574Z,99.99
2022-12-29T01:55:06.556Z,99.99
2022-12-29T01:56:06.584Z,99.99
2022-12-29T01:57:06.552Z,99.99
2022-12-29T01:58:06.527Z,99.99
2022-12-29T01:59:06.511Z,99.99
2022-12-29T02:00:06.523Z,99.99
2022-12-29T02:01:06.583Z,99.99
2022-12-29T02:02:06.542Z,99.99
2022-12-29T02:03:06.583Z,99.99
2022-12-29T02:04:06.458Z,99.99
2022-12-29T02:05:06.462Z,99.99
2022-12-29T02:06:06.446Z,99.99
2022-12-29T02:07:06.440Z,99.99
2022-12-29T02:08:06.419Z,99.99
2022-12-29T02:09:06.422Z,99.99
2022-12-29T02:10:06.401Z,99.99
2022-12-29T02:11:06.419Z,99.99
2022-12-29T02:12:06.383Z,99.99
2022-12-29T02:13:06.379Z,99.99
2022-12-29T02:14:06.349Z,99.99
2022-12-29T02:15:06.350Z,99.99
2022-12-29T02:16:06.371Z,99.99
2022-12-29T02:17:06.315Z,99.99
2022-12-29T02:18:06.314Z,99.99
2022-12-29T02:19:06.309Z,99.99
2022-12-29T02:20:06.316Z,99.99
2022-12-29T02:21:06.294Z,99.99
2022-12-29T02:22:06.284Z,99.99
2022-12-29T02:23:06.252Z,99.99
2022-12-29T02:24:06.234Z,99.99
2022-12-29T02:25:06.248Z,99.99
2022-12-29T02:26:06.227Z,99.99
2022-12-29T02:27:06.228Z,99.99
2022-12-29T02:28:06.202Z,99.99
2022-12-29T02:29:06.198Z,99.99
2022-12-29T02:30:06.198Z,99.99
2022-12-29T02:31:06.175Z,99.99
2022-12-29T02:32:06.210Z,99.99
2022-12-29T02:33:06.144Z,99.99
2022-12-29T02:34:06.143Z,99.99
2022-12-29T02:35:06.124Z,99.99
2022-12-29T02:36:06.123Z,99.99
2022-12-29T02:37:06.103Z,99.99
2022-12-29T02:38:06.100Z,99.99
2022-12-29T02:39:06.102Z,99.99
2022-12-29T02:40:06.069Z,99.99
2022-12-29T02:41:06.072Z,99.99
2022-12-29T02:42:06.078Z,99.99
2022-12-29T02:43:06.033Z,99.99
2022-12-29T02:44:06.025Z,99.99
2022-12-29T02:45:06.031Z,99.99
2022-12-29T02:46:06.057Z,99.99
2022-12-29T02:47:06.003Z,99.99
2022-12-29T02:48:05.986Z,99.99
2022-12-29T02:49:05.984Z,99.99
2022-12-29T02:50:05.967Z,99.99
2022-12-29T02:51:05.971Z,99.99
2022-12-29T02:52:05.959Z,99.99
2022-12-29T02:53:05.952Z,99.99
2022-12-29T02:54:05.917Z,99.99
2022-12-29T02:55:05.917Z,99.99
2022-12-29T02:56:05.936Z,99.99
2022-12-29T02:57:05.880Z,99.99
2022-12-29T02:58:05.878Z,99.99
2022-12-29T02:59:05.900Z,99.99
2022-12-29T03:00:05.971Z,99.99
2022-12-29T03:01:05.917Z,99.99
2022-12-29T03:02:06.040Z,99.99
2022-12-29T03:03:05.986Z,99.99
2022-12-29T03:04:05.834Z,99.99
2022-12-29T03:05:05.793Z,99.99
2022-12-29T03:06:05.830Z,99.99
2022-12-29T03:07:05.773Z,99.99
2022-12-29T03:08:05.769Z,99.99
2022-12-29T03:09:05.807Z,99.99
2022-12-29T03:10:05.799Z,99.99
2022-12-29T03:11:05.750Z,99.99
2022-12-29T03:12:05.733Z,99.99
2022-12-29T03:13:05.716Z,99.99
2022-12-29T03:14:05.704Z,99.99
2022-12-29T03:15:05.684Z,99.99
2022-12-29T03:16:05.702Z,99.99
2022-12-29T03:17:05.800Z,99.99
2022-12-29T03:18:05.666Z,99.99
2022-12-29T03:19:05.646Z,99.99
2022-12-29T03:20:05.641Z,99.99
2022-12-29T03:21:05.651Z,99.99
2022-12-29T03:22:05.642Z,99.99
2022-12-29T03:23:05.610Z,99.99
2022-12-29T03:24:05.599Z,99.99
2022-12-29T03:25:05.582Z,99.99
2022-12-29T03:26:05.590Z,99.99
2022-12-29T03:27:05.569Z,99.99
2022-12-29T03:28:05.548Z,99.99
2022-12-29T03:29:05.543Z,99.99
2022-12-29T03:30:05.539Z,99.99
2022-12-29T03:31:05.662Z,99.99
2022-12-29T03:32:05.508Z,99.99
2022-12-29T03:33:05.492Z,99.99
2022-12-29T03:34:05.509Z,99.99
2022-12-29T03:35:05.469Z,99.99
2022-12-29T03:36:05.480Z,99.99
2022-12-29T03:37:05.462Z,99.99
2022-12-29T03:38:05.438Z,99.99
2022-12-29T03:39:05.430Z,99.99
2022-12-29T03:40:05.450Z,99.99
2022-12-29T03:41:05.420Z,99.99
2022-12-29T03:42:05.414Z,99.99
2022-12-29T03:43:05.387Z,99.99
2022-12-29T03:44:05.377Z,99.99
2022-12-29T03:45:05.362Z,99.99
2022-12-29T03:46:05.434Z,99.99
2022-12-29T03:47:05.342Z,99.99
2022-12-29T03:48:05.331Z,99.99
2022-12-29T03:49:05.330Z,99.99
2022-12-29T03:50:05.328Z,99.99
2022-12-29T03:51:05.323Z,99.99
2022-12-29T03:52:05.289Z,99.99
2022-12-29T03:53:05.284Z,99.99
2022-12-29T03:54:05.281Z,99.99
2022-12-29T03:55:05.264Z,99.99
2022-12-29T03:56:05.281Z,99.99
2022-12-29T03:57:05.245Z,99.99
2022-12-29T03:58:05.232Z,99.99
2022-12-29T03:59:05.236Z,99.99
2022-12-29T04:00:05.202Z,99.99
2022-12-29T04:01:05.307Z,99.99
2022-12-29T04:02:05.344Z,99.99
2022-12-29T04:03:05.316Z,99.99
2022-12-29T04:04:05.166Z,99.99
2022-12-29T04:05:05.168Z,99.99
2022-12-29T04:06:05.161Z,99.99
2022-12-29T04:07:05.151Z,99.99
2022-12-29T04:08:05.121Z,99.99
2022-12-29T04:09:05.115Z,99.99
2022-12-29T04:10:05.136Z,99.99
2022-12-29T04:11:05.104Z,99.99
2022-12-29T04:12:05.078Z,99.99
2022-12-29T04:13:05.091Z,99.99
2022-12-29T04:14:05.081Z,99.99
2022-12-29T04:15:05.049Z,99.99
2022-12-29T04:16:05.142Z,99.99
2022-12-29T04:17:05.029Z,99.99
2022-12-29T04:18:05.045Z,99.99
2022-12-29T04:19:05.015Z,99.99
2022-12-29T04:20:04.996Z,99.99
2022-12-29T04:21:05.004Z,99.99
2022-12-29T04:22:04.982Z,99.99
2022-12-29T04:23:04.983Z,99.99
2022-12-29T04:24:04.973Z,99.99
2022-12-29T04:25:04.947Z,99.99
2022-12-29T04:26:04.948Z,99.99
2022-12-29T04:27:04.941Z,99.99
2022-12-29T04:28:04.911Z,99.99
2022-12-29T04:29:04.909Z,99.99
2022-12-29T04:30:04.897Z,99.99
2022-12-29T04:31:04.934Z,99.99
2022-12-29T04:32:04.895Z,99.99
2022-12-29T04:33:04.864Z,99.99
2022-12-29T04:34:04.850Z,99.99
2022-12-29T04:35:04.841Z,99.99
2022-12-29T04:36:04.840Z,99.99
2022-12-29T04:37:04.840Z,99.99
2022-12-29T04:38:04.809Z,99.99
2022-12-29T04:39:04.811Z,99.99
2022-12-29T04:40:04.787Z,99.99
2022-12-29T04:41:04.791Z,99.99
2022-12-29T04:42:04.779Z,99.99
2022-12-29T04:43:04.771Z,99.99
2022-12-29T04:44:04.767Z,99.99
2022-12-29T04:45:04.749Z,99.99
2022-12-29T04:46:04.785Z,99.99
2022-12-29T04:47:04.737Z,99.99
2022-12-29T04:48:04.703Z,99.99
2022-12-29T04:49:04.697Z,99.99
2022-12-29T04:50:04.743Z,99.99
2022-12-29T04:51:04.683Z,99.99
2022-12-29T04:52:04.675Z,99.99
2022-12-29T04:53:04.676Z,99.99
2022-12-29T04:54:04.642Z,99.99
2022-12-29T04:55:04.639Z,99.99
2022-12-29T04:56:04.628Z,99.99
2022-12-29T04:57:04.629Z,99.99
2022-12-29T04:58:04.621Z,99.99
2022-12-29T04:59:04.597Z,99.99
2022-12-29T05:00:04.584Z,99.99
2022-12-29T05:01:04.586Z,99.99
2022-12-29T05:02:04.645Z,99.99
2022-12-29T05:03:04.792Z,99.99
2022-12-29T05:04:04.632Z,99.99
2022-12-29T05:05:04.523Z,99.99
2022-12-29T05:06:04.549Z,99.99
2022-12-29T05:07:04.526Z,99.99
2022-12-29T05:08:04.492Z,99.99
2022-12-29T05:09:04.486Z,99.99
2022-12-29T05:10:04.486Z,99.99
2022-12-29T05:11:04.475Z,99.99
2022-12-29T05:12:04.467Z,99.99
2022-12-29T05:13:04.462Z,99.99
2022-12-29T05:14:04.440Z,99.99
2022-12-29T05:15:04.428Z,99.99
2022-12-29T05:16:04.505Z,99.99
2022-12-29T05:17:04.431Z,99.99
2022-12-29T05:18:04.398Z,99.99
2022-12-29T05:19:04.389Z,99.99
2022-12-29T05:20:04.373Z,99.99
2022-12-29T05:21:04.390Z,99.99
2022-12-29T05:22:04.365Z,99.99
2022-12-29T05:23:04.347Z,99.99
2022-12-29T05:24:04.349Z,99.99
2022-12-29T05:25:04.328Z,99.99
2022-12-29T05:26:04.319Z,99.99
2022-12-29T05:27:04.338Z,99.99
2022-12-29T05:28:04.290Z,99.99
2022-12-29T05:29:04.288Z,99.99
2022-12-29T05:30:04.280Z,99.99
2022-12-29T05:31:04.293Z,99.99
2022-12-29T05:32:04.278Z,99.99
2022-12-29T05:33:04.238Z,99.99
2022-12-29T05:34:04.229Z,99.99
2022-12-29T05:35:04.268Z,99.99
2022-12-29T05:36:04.213Z,99.99
2022-12-29T05:37:04.210Z,99.99
2022-12-29T05:38:04.197Z,99.99
2022-12-29T05:39:04.182Z,99.99
2022-12-29T05:40:04.179Z,99.99
2022-12-29T05:41:04.155Z,99.99
2022-12-29T05:42:04.170Z,99.99
2022-12-29T05:43:04.134Z,99.99
2022-12-29T05:44:04.125Z,99.99
2022-12-29T05:45:04.118Z,99.99
2022-12-29T05:46:04.120Z,99.99
2022-12-29T05:47:04.230Z,99.99
2022-12-29T05:48:04.076Z,99.99
2022-12-29T05:49:04.088Z,99.99
2022-12-29T05:50:04.054Z,99.99
2022-12-29T05:51:04.056Z,99.99
2022-12-29T05:52:04.070Z,99.99
2022-12-29T05:53:04.030Z,99.99
2022-12-29T05:54:04.028Z,99.99
2022-12-29T05:55:04.027Z,99.99
2022-12-29T05:56:03.998Z,99.99
2022-12-29T05:57:04.010Z,99.99
2022-12-29T05:58:03.976Z,99.99
2022-12-29T05:59:03.981Z,99.99
2022-12-29T06:00:03.955Z,99.99
2022-12-29T06:01:03.961Z,99.99
2022-12-29T06:02:04.142Z,99.99
2022-12-29T06:03:04.113Z,99.99
2022-12-29T06:04:04.038Z,99.99
2022-12-29T06:05:03.912Z,99.99
2022-12-29T06:06:03.914Z,99.99
2022-12-29T06:07:03.932Z,99.99
2022-12-29T06:08:03.881Z,99.99
2022-12-29T06:09:03.871Z,99.99
2022-12-29T06:10:03.856Z,99.99
2022-12-29T06:11:03.866Z,99.99
2022-12-29T06:12:03.865Z,99.99
2022-12-29T06:13:03.991Z,99.99
2022-12-29T06:14:03.833Z,99.99
2022-12-29T06:15:03.813Z,99.99
2022-12-29T06:16:03.840Z,99.99
2022-12-29T06:17:03.811Z,99.99
2022-12-29T06:18:03.779Z,99.99
2022-12-29T06:19:03.780Z,99.99
2022-12-29T06:20:03.748Z,99.99
2022-12-29T06:21:03.746Z,99.99
2022-12-29T06:22:03.749Z,99.99
2022-12-29T06:23:03.732Z,99.99
2022-12-29T06:24:03.713Z,99.99
2022-12-29T06:25:05.366Z,99.99
2022-12-29T06:26:03.706Z,99.99
2022-12-29T06:27:03.697Z,99.99
2022-12-29T06:28:03.664Z,99.99
2022-12-29T06:29:03.674Z,99.99
2022-12-29T06:30:03.707Z,99.99
2022-12-29T06:31:03.660Z,99.99
2022-12-29T06:32:03.717Z,99.99
2022-12-29T06:33:03.618Z,99.99
2022-12-29T06:34:08.120Z,99.99
2022-12-29T06:35:03.623Z,99.99
2022-12-29T06:36:03.595Z,99.99
2022-12-29T06:37:03.605Z,99.99
2022-12-29T06:38:03.581Z,99.99
2022-12-29T06:39:03.560Z,99.99
2022-12-29T06:40:03.561Z,99.99
2022-12-29T06:41:03.551Z,99.99
2022-12-29T06:42:03.579Z,99.99
2022-12-29T06:43:03.527Z,99.99
2022-12-29T06:44:03.519Z,99.99
2022-12-29T06:45:03.530Z,99.99
2022-12-29T06:46:03.575Z,99.99
2022-12-29T06:47:03.496Z,99.99
2022-12-29T06:48:03.475Z,99.99
2022-12-29T06:49:03.474Z,99.99
2022-12-29T06:50:03.454Z,99.99
2022-12-29T06:51:03.486Z,99.99
2022-12-29T06:52:07.546Z,99.99
2022-12-29T06:53:03.439Z,99.99
2022-12-29T06:54:03.410Z,99.99
2022-12-29T06:55:03.402Z,99.99
2022-12-29T06:56:03.392Z,99.99
2022-12-29T06:57:03.404Z,99.99
2022-12-29T06:58:03.384Z,99.99
2022-12-29T06:59:03.369Z,99.99
2022-12-29T07:00:03.349Z,99.99
2022-12-29T07:01:03.412Z,99.99
2022-12-29T07:02:03.659Z,99.99
2022-12-29T07:03:03.531Z,99.99
2022-12-29T07:04:03.335Z,99.99
2022-12-29T07:05:03.305Z,99.99
2022-12-29T07:06:03.310Z,99.99
2022-12-29T07:07:03.292Z,99.99
2022-12-29T07:08:03.312Z,99.99
2022-12-29T07:09:03.258Z,99.99
2022-12-29T07:10:03.257Z,99.99
2022-12-29T07:11:03.230Z,99.99
2022-12-29T07:12:03.244Z,99.99
2022-12-29T07:13:03.158Z,99.99
2022-12-29T07:14:03.214Z,99.99
2022-12-29T07:15:03.167Z,99.99
2022-12-29T07:16:03.131Z,99.99
2022-12-29T07:17:03.168Z,99.99
2022-12-29T07:18:03.119Z,99.99
2022-12-29T07:19:03.107Z,99.99
2022-12-29T07:20:03.104Z,99.99
2022-12-29T07:21:03.076Z,99.99
2022-12-29T07:22:03.103Z,99.99
2022-12-29T07:23:03.112Z,99.99
2022-12-29T07:24:03.069Z,99.99
2022-12-29T07:25:03.034Z,99.99
2022-12-29T07:26:03.031Z,99.99
2022-12-29T07:27:03.050Z,99.99
2022-12-29T07:28:03.003Z,99.99
2022-12-29T07:29:03.028Z,99.99
2022-12-29T07:30:02.986Z,99.99
2022-12-29T07:31:02.978Z,99.99
2022-12-29T07:32:03.043Z,99.99
2022-12-29T07:33:02.950Z,99.99
2022-12-29T07:34:02.947Z,99.99
2022-12-29T07:35:02.942Z,99.99
2022-12-29T07:36:02.946Z,99.99
2022-12-29T07:37:02.924Z,99.99
2022-12-29T07:38:02.913Z,99.99
2022-12-29T07:39:02.887Z,99.99
2022-12-29T07:40:02.881Z,99.99
2022-12-29T07:41:02.886Z,99.99
2022-12-29T07:42:05.343Z,99.99
2022-12-29T07:43:02.857Z,99.99
2022-12-29T07:44:02.843Z,99.99
2022-12-29T07:45:02.835Z,99.99
2022-12-29T07:46:02.900Z,99.99
2022-12-29T07:47:02.859Z,99.99
2022-12-29T07:48:02.815Z,99.99
2022-12-29T07:49:02.775Z,99.99
2022-12-29T07:50:02.761Z,99.99
2022-12-29T07:51:02.760Z,99.99
2022-12-29T07:52:02.741Z,99.99
2022-12-29T07:53:02.777Z,99.99
2022-12-29T07:54:02.740Z,99.99
2022-12-29T07:55:02.709Z,99.99
2022-12-29T07:56:02.707Z,99.99
2022-12-29T07:57:02.709Z,99.99
2022-12-29T07:58:02.699Z,99.99
2022-12-29T07:59:02.705Z,99.99
2022-12-29T08:00:02.679Z,99.99
2022-12-29T08:01:02.669Z,99.99
2022-12-29T08:02:02.781Z,99.99
2022-12-29T08:03:02.643Z,99.99
2022-12-29T08:04:02.688Z,99.99
2022-12-29T08:05:02.628Z,99.99
2022-12-29T08:06:02.598Z,99.99
2022-12-29T08:07:02.587Z,99.99
2022-12-29T08:08:02.614Z,99.99
2022-12-29T08:09:09.914Z,99.99
2022-12-29T08:10:02.575Z,99.99
2022-12-29T08:11:02.542Z,99.99
2022-12-29T08:12:02.564Z,99.99
2022-12-29T08:13:02.544Z,99.99
2022-12-29T08:14:02.511Z,99.99
2022-12-29T08:15:02.494Z,99.99
2022-12-29T08:16:02.600Z,99.99
2022-12-29T08:17:02.486Z,99.99
2022-12-29T08:18:02.513Z,99.99
2022-12-29T08:19:02.451Z,99.99
2022-12-29T08:20:02.465Z,99.99
2022-12-29T08:21:02.477Z,99.99
2022-12-29T08:22:02.440Z,99.99
2022-12-29T08:23:02.432Z,99.99
2022-12-29T08:24:02.403Z,99.99
2022-12-29T08:25:02.399Z,99.99
2022-12-29T08:26:02.385Z,99.99
2022-12-29T08:27:10.872Z,99.99
2022-12-29T08:28:02.401Z,99.99
2022-12-29T08:29:02.357Z,99.99
2022-12-29T08:30:02.371Z,99.99
2022-12-29T08:31:02.427Z,99.99
2022-12-29T08:32:02.334Z,99.99
2022-12-29T08:33:02.311Z,99.99
2022-12-29T08:34:02.291Z,99.99
2022-12-29T08:35:02.297Z,99.99
2022-12-29T08:36:02.279Z,99.99
2022-12-29T08:37:02.256Z,99.99
2022-12-29T08:38:02.268Z,99.99
2022-12-29T08:39:02.247Z,99.99
2022-12-29T08:40:02.233Z,99.99
2022-12-29T08:41:02.216Z,99.99
2022-12-29T08:42:02.207Z,99.99
2022-12-29T08:43:02.212Z,99.99
2022-12-29T08:44:02.194Z,99.99
2022-12-29T08:45:02.175Z,99.99
2022-12-29T08:46:02.286Z,99.99
2022-12-29T08:47:02.154Z,99.99
2022-12-29T08:48:02.171Z,99.99
2022-12-29T08:49:02.136Z,99.99
2022-12-29T08:50:02.124Z,99.99
2022-12-29T08:51:02.155Z,99.99
2022-12-29T08:52:02.112Z,99.99
2022-12-29T08:53:02.100Z,99.99
2022-12-29T08:54:02.146Z,99.99
2022-12-29T08:55:02.083Z,99.99
2022-12-29T08:56:05.163Z,99.99
2022-12-29T08:57:02.043Z,99.99
2022-12-29T08:58:02.064Z,99.99
2022-12-29T08:59:02.031Z,99.99
2022-12-29T09:00:02.062Z,99.99
2022-12-29T09:01:02.073Z,99.99
2022-12-29T09:02:02.084Z,99.99
2022-12-29T09:03:02.187Z,99.99
2022-12-29T09:04:18.398Z,99.99
2022-12-29T09:05:02.116Z,99.99
2022-12-29T09:06:01.996Z,99.99
2022-12-29T09:07:01.944Z,99.99
2022-12-29T09:08:01.948Z,99.99
2022-12-29T09:09:01.945Z,99.99
2022-12-29T09:10:01.907Z,99.99
2022-12-29T09:11:01.903Z,99.99
2022-12-29T09:12:01.943Z,99.99
2022-12-29T09:13:01.903Z,99.99
2022-12-29T09:14:01.979Z,99.99
2022-12-29T09:15:01.859Z,99.99
2022-12-29T09:16:01.944Z,99.99
2022-12-29T09:17:01.842Z,99.99
2022-12-29T09:18:01.849Z,99.99
2022-12-29T09:19:01.833Z,99.99
2022-12-29T09:20:01.801Z,99.99
2022-12-29T09:21:01.841Z,99.99
2022-12-29T09:22:01.786Z,99.99
2022-12-29T09:23:01.827Z,99.99
2022-12-29T09:24:01.789Z,99.99
2022-12-29T09:25:01.825Z,99.99
2022-12-29T09:26:01.748Z,99.99
2022-12-29T09:27:01.750Z,99.99
2022-12-29T09:28:01.734Z,99.99
2022-12-29T09:29:01.745Z,99.99
2022-12-29T09:30:01.740Z,99.99
2022-12-29T09:31:01.748Z,99.99
2022-12-29T09:32:01.685Z,99.99
2022-12-29T09:33:01.810Z,99.99
2022-12-29T09:34:01.654Z,99.99
2022-12-29T09:35:01.647Z,99.99
2022-12-29T09:36:01.643Z,99.99
2022-12-29T09:37:01.636Z,99.99
2022-12-29T09:38:01.634Z,99.99
2022-12-29T09:39:01.607Z,99.99
2022-12-29T09:40:01.606Z,99.99
2022-12-29T09:41:01.586Z,99.99
2022-12-29T09:42:01.602Z,99.99
2022-12-29T09:43:01.568Z,99.99
2022-12-29T09:44:01.594Z,99.99
2022-12-29T09:45:01.538Z,99.99
2022-12-29T09:46:01.549Z,99.99
2022-12-29T09:47:01.676Z,99.99
2022-12-29T09:48:06.734Z,99.99
2022-12-29T09:49:01.563Z,99.99
2022-12-29T09:50:01.564Z,99.99
2022-12-29T09:51:01.471Z,99.99
2022-12-29T09:52:01.467Z,99.99
2022-12-29T09:53:01.446Z,99.99
2022-12-29T09:54:01.495Z,99.99
2022-12-29T09:55:06.344Z,99.99
2022-12-29T09:56:01.448Z,99.99
2022-12-29T09:57:01.408Z,99.99
2022-12-29T09:58:01.405Z,99.99
2022-12-29T09:59:01.411Z,99.99
2022-12-29T10:00:01.387Z,99.99
2022-12-29T10:01:01.445Z,99.99
2022-12-29T10:02:01.610Z,99.99
2022-12-29T10:03:01.488Z,99.99
2022-12-29T10:04:01.360Z,99.99
2022-12-29T10:05:01.322Z,99.99
2022-12-29T10:06:01.318Z,99.99
2022-12-29T10:07:28.650Z,99.99
2022-12-29T10:08:01.297Z,99.99
2022-12-29T10:09:01.315Z,99.99
2022-12-29T10:10:01.370Z,99.99
2022-12-29T10:11:01.260Z,99.99
2022-12-29T10:12:01.275Z,99.99
2022-12-29T10:13:01.272Z,99.99
2022-12-29T10:14:01.240Z,99.99
2022-12-29T10:15:01.244Z,99.99
2022-12-29T10:16:01.397Z,99.99
2022-12-29T10:17:01.187Z,99.99
2022-12-29T10:18:01.263Z,99.99
2022-12-29T10:19:01.200Z,99.99
2022-12-29T10:20:01.173Z,99.99
2022-12-29T10:21:01.157Z,99.99
2022-12-29T10:22:01.209Z,99.99
2022-12-29T10:23:01.130Z,99.99
2022-12-29T10:24:01.160Z,99.99
2022-12-29T10:25:01.107Z,99.99
2022-12-29T10:26:01.095Z,99.99
2022-12-29T10:27:01.074Z,99.99
2022-12-29T10:28:01.084Z,99.99
2022-12-29T10:29:01.163Z,99.99
2022-12-29T10:30:01.084Z,99.99
2022-12-29T10:31:05.200Z,99.99
2022-12-29T10:32:01.107Z,99.99
2022-12-29T10:33:01.039Z,99.99
2022-12-29T10:34:01.052Z,99.99
2022-12-29T10:35:00.995Z,99.99
2022-12-29T10:36:00.990Z,99.99
2022-12-29T10:37:00.975Z,99.99
2022-12-29T10:38:00.971Z,99.99
2022-12-29T10:39:00.989Z,99.99
2022-12-29T10:40:01.002Z,99.99
2022-12-29T10:41:00.946Z,99.99
2022-12-29T10:42:00.929Z,99.99
2022-12-29T10:43:00.907Z,99.99
2022-12-29T10:44:00.920Z,99.99
2022-12-29T10:45:00.911Z,99.99
2022-12-29T10:46:00.963Z,99.99
2022-12-29T10:47:01.692Z,99.99
2022-12-29T10:48:00.873Z,99.99
2022-12-29T10:49:00.875Z,99.99
2022-12-29T10:50:00.847Z,99.99
2022-12-29T10:51:02.263Z,99.99
2022-12-29T10:52:00.834Z,99.99
2022-12-29T10:53:00.803Z,99.99
2022-12-29T10:54:00.824Z,99.99
2022-12-29T10:55:00.815Z,99.99
2022-12-29T10:56:00.779Z,99.99
2022-12-29T10:57:00.784Z,99.99
2022-12-29T10:58:00.774Z,99.99
2022-12-29T10:59:00.814Z,99.99
2022-12-29T11:00:00.740Z,99.99
2022-12-29T11:01:00.877Z,99.99
2022-12-29T11:02:00.961Z,99.99
2022-12-29T11:03:00.812Z,99.99
2022-12-29T11:04:00.731Z,99.99
2022-12-29T11:05:00.690Z,99.99
2022-12-29T11:06:00.715Z,99.99
2022-12-29T11:07:00.797Z,99.99
2022-12-29T11:08:00.654Z,99.99
2022-12-29T11:09:00.664Z,99.99
2022-12-29T11:10:00.641Z,99.99
2022-12-29T11:11:00.607Z,99.99
2022-12-29T11:12:00.597Z,99.99
2022-12-29T11:13:00.637Z,99.99
2022-12-29T11:14:00.635Z,99.99
2022-12-29T11:15:00.578Z,99.99
2022-12-29T11:16:00.651Z,99.99
2022-12-29T11:17:00.669Z,99.99
2022-12-29T11:18:00.651Z,99.99
2022-12-29T11:19:00.605Z,99.99
2022-12-29T11:20:00.517Z,99.97
2022-12-29T11:21:00.638Z,99.99
2022-12-29T11:22:00.551Z,99.99
2022-12-29T11:23:00.552Z,99.99
2022-12-29T11:24:00.496Z,99.99
2022-12-29T11:25:00.487Z,99.99
2022-12-29T11:26:00.452Z,99.99
2022-12-29T11:27:00.449Z,99.99
2022-12-29T11:28:00.444Z,99.99
2022-12-29T11:29:00.438Z,99.99
2022-12-29T11:30:00.436Z,99.99
2022-12-29T11:31:00.404Z,99.99
2022-12-29T11:32:00.565Z,99.99
2022-12-29T11:33:00.389Z,99.99
2022-12-29T11:34:00.370Z,99.99
2022-12-29T11:35:00.380Z,99.99
2022-12-29T11:36:00.495Z,99.99
2022-12-29T11:37:00.343Z,99.99
2022-12-29T11:38:00.330Z,99.99
2022-12-29T11:39:00.324Z,99.99
2022-12-29T11:40:00.336Z,99.99
2022-12-29T11:41:00.303Z,99.99
2022-12-29T11:42:00.296Z,99.99
2022-12-29T11:43:00.293Z,99.87
2022-12-29T11:44:00.270Z,99.99
2022-12-29T11:45:00.269Z,99.87
2022-12-29T11:46:00.371Z,99.87
2022-12-29T11:47:00.236Z,99.99
2022-12-29T11:48:00.252Z,99.99
2022-12-29T11:49:00.211Z,99.99
2022-12-29T11:50:00.234Z,99.99
2022-12-29T11:51:00.195Z,99.99
2022-12-29T11:52:00.183Z,99.99
2022-12-29T11:53:00.191Z,99.99
2022-12-29T11:54:00.186Z,99.99
2022-12-29T11:55:00.167Z,99.99
2022-12-29T11:56:00.337Z,99.99
2022-12-29T11:57:00.137Z,99.99
2022-12-29T11:58:00.130Z,99.99
2022-12-29T11:59:00.110Z,99.99
2022-12-29T12:00:00.140Z,99.87
2022-12-29T12:01:00.096Z,99.97
2022-12-29T12:02:00.354Z,99.99
2022-12-29T12:03:00.161Z,99.97
2022-12-29T12:04:00.192Z,99.99
2022-12-29T12:05:00.062Z,99.99
2022-12-29T12:06:00.036Z,99.97
2022-12-29T12:07:00.056Z,99.99
2022-12-29T12:08:00.042Z,99.97
2022-12-29T12:09:00.046Z,99.25
2022-12-29T12:10:06.622Z,99.35
2022-12-29T12:10:59.996Z,98.22
2022-12-29T12:11:59.971Z,99.05
2022-12-29T12:12:59.968Z,99.25
2022-12-29T12:14:00.668Z,99.35
2022-12-29T12:14:59.962Z,98.94
2022-12-29T12:16:00.017Z,98.94
2022-12-29T12:16:59.969Z,99.25
2022-12-29T12:17:59.912Z,99.15
2022-12-29T12:18:59.917Z,98.74
2022-12-29T12:19:59.915Z,98.43
2022-12-29T12:20:59.884Z,98.74
2022-12-29T12:21:59.874Z,98.74
2022-12-29T12:22:59.868Z,98.94
2022-12-29T12:23:59.842Z,99.05
2022-12-29T12:24:59.851Z,98.53
2022-12-29T12:25:59.853Z,98.02
2022-12-29T12:26:59.840Z,98.53
2022-12-29T12:27:59.797Z,98.12
2022-12-29T12:28:59.808Z,98.53
2022-12-29T12:29:59.799Z,98.02
2022-12-29T12:30:59.856Z,98.33
2022-12-29T12:31:59.752Z,97.71
2022-12-29T12:32:59.749Z,97.81
2022-12-29T12:33:59.754Z,98.02
2022-12-29T12:34:59.739Z,98.12
2022-12-29T12:35:59.714Z,97.61
2022-12-29T12:36:59.813Z,98.74
2022-12-29T12:37:59.691Z,98.74
2022-12-29T12:38:59.680Z,98.74
2022-12-29T12:39:59.691Z,98.53
2022-12-29T12:40:59.662Z,98.12
2022-12-29T12:41:59.698Z,98.99
2022-12-29T12:42:59.676Z,97.75
2022-12-29T12:43:59.627Z,97.19
2022-12-29T12:44:59.633Z,97.40
2022-12-29T12:45:59.663Z,97.30
2022-12-29T12:46:59.685Z,97.40
2022-12-29T12:47:59.587Z,97.40
2022-12-29T12:48:59.589Z,97.81
2022-12-29T12:49:59.591Z,96.99
2022-12-29T12:50:59.561Z,96.68
2022-12-29T12:52:03.065Z,98.22